Chantaco — FMLM — position and weather

sailwx.info

Track history (hours):
 
Tides and Currents Weather Stations Pressure Air Temp Water Temp Dewpoint Dewpoint Depression Visibility Wind Speed Wind Dir Waves Ship Positions

Chantaco

Last reported at 2017-Mar-24 03:32 UTC. Time now 2017-Mar-24 04:18 UTC.
Position N 47°18' W 002°06'.

Length 143 m; draft 8.8 m.

Type: Tanker. MMSI: 228330700.

Date/timePositionNaut miles runAvg speedWind from/ knotsBaromVisibWave heightAir tempDewpointWater temp
2017-Mar-24 03:32N 47°18' W 002°06'0 0.0
2017-Mar-24 02:23N 47°18' W 002°06'0 0.0
2017-Mar-24 01:20N 47°18' W 002°06'0 0.0
2017-Mar-24 00:29N 47°18' W 002°06'0 0.0
2017-Mar-23 23:32N 47°18' W 002°06'0 0.0
2017-Mar-23 22:29N 47°18' W 002°06'0 0.0
2017-Mar-23 21:29N 47°18' W 002°06'0 0.0
2017-Mar-23 20:32N 47°18' W 002°06'0 0.0
2017-Mar-23 19:29N 47°18' W 002°06'0 0.0
2017-Mar-23 18:32N 47°18' W 002°06'0 0.0
2017-Mar-23 17:32N 47°18' W 002°06'0 0.0
2017-Mar-23 16:32N 47°18' W 002°06'0 0.0
2017-Mar-23 15:31N 47°18' W 002°06'0 0.0
2017-Mar-23 14:28N 47°18' W 002°06'0 0.0
2017-Mar-23 13:31N 47°18' W 002°06'0 0.0
2017-Mar-23 12:25N 47°18' W 002°06'0 0.0
2017-Mar-23 11:28N 47°18' W 002°06'0 0.0
2017-Mar-23 10:31N 47°18' W 002°06'0 0.0
2017-Mar-23 09:22N 47°18' W 002°06'0 0.0
2017-Mar-23 08:19N 47°18' W 002°06'0 0.0
2017-Mar-23 07:28N 47°18' W 002°06'0 0.0
2017-Mar-23 06:31N 47°18' W 002°06'0 0.0
2017-Mar-23 05:28N 47°18' W 002°06'0 0.0
2017-Mar-23 04:22N 47°18' W 002°06'0 0.0
2017-Mar-23 03:31N 47°18' W 002°06'0 0.0
2017-Mar-23 02:28N 47°18' W 002°06'0 0.0
2017-Mar-23 01:33N 47°18' W 002°06'3 3.3
2017-Mar-23 00:33N 47°17' W 002°10'1211.9
2017-Mar-22 23:33N 47°08' W 002°22'4 3.4
2017-Mar-22 22:30N 47°07' W 002°27'0 0.0
2017-Mar-22 21:24N 47°07' W 002°27'0 0.0
2017-Mar-22 20:30N 47°07' W 002°27'0 0.0
2017-Mar-22 17:24N 47°07' W 002°27'0 0.1
2017-Mar-22 16:33N 47°07' W 002°27'0 0.1
2017-Mar-22 15:30N 47°07' W 002°27'0 0.1
2017-Mar-22 14:32N 47°07' W 002°27'0 0.1
2017-Mar-22 13:32N 47°07' W 002°27'0 0.1
2017-Mar-22 12:33N 47°07' W 002°27'5 5.2
2017-Mar-22 11:33N 47°03' W 002°30'21012.4
2017-Mar-21 18:33N 43°35' W 001°40'8 7.8
2017-Mar-21 17:33N 43°32' W 001°30'1 0.0
2017-Mar-20 17:33N 43°32' W 001°31'9 9.2
2017-Mar-20 16:33N 43°37' W 001°41'20514.6
2017-Mar-20 02:33N 46°34' W 004°07'1414.2
2017-Mar-20 01:33N 46°46' W 004°18'1414.2
2017-Mar-20 00:33N 46°59' W 004°28'1414.3
2017-Mar-19 23:32N 47°11' W 004°39'1514.6
2017-Mar-19 22:33N 47°24' W 004°49'3114.6
2017-Mar-19 20:26N 47°50' W 005°13'1614.2
2017-Mar-19 19:20N 48°04' W 005°24'1513.8
2017-Mar-19 18:14N 48°17' W 005°35'7510.6
2017-Mar-19 11:08N 49°20' W 004°34'5812.7
2017-Mar-19 06:32N 49°50' W 003°16'1414.8
2017-Mar-19 05:33N 49°57' W 002°57'1615.4
2017-Mar-19 04:31N 50°01' W 002°33'1414.8
2017-Mar-19 03:33N 50°00' W 002°10'1414.0
2017-Mar-19 02:33N 49°56' W 001°50'1313.1
2017-Mar-19 01:33N 49°53' W 001°30'1212.2
2017-Mar-19 00:34N 49°51' W 001°11'1211.9
2017-Mar-18 23:34N 49°46' W 000°54'1212.2
2017-Mar-18 22:34N 49°40' W 000°38'1312.7
2017-Mar-18 21:33N 49°35' W 000°20'1212.3
2017-Mar-18 20:34N 49°31' W 000°02'8 8.3
2017-Mar-18 19:34N 49°29' E 000°10'1 0.5
2017-Mar-18 18:34N 49°29' E 000°11'0 0.0
2017-Mar-18 17:33N 49°29' E 000°11'0 0.0
2017-Mar-18 16:33N 49°29' E 000°11'0 0.0
2017-Mar-18 15:33N 49°29' E 000°11'0 0.0
2017-Mar-18 14:33N 49°29' E 000°11'0 0.0
2017-Mar-18 13:33N 49°29' E 000°11'0 0.0
2017-Mar-18 12:33N 49°29' E 000°11'0 0.0
2017-Mar-18 11:33N 49°29' E 000°11'0 0.0
2017-Mar-18 10:33N 49°29' E 000°11'0 0.0
2017-Mar-18 09:33N 49°29' E 000°11'0 0.0
2017-Mar-18 08:33N 49°29' E 000°11'0 0.0
2017-Mar-18 07:33N 49°29' E 000°11'0 0.0
2017-Mar-18 06:33N 49°29' E 000°11'0 0.0
2017-Mar-18 05:32N 49°29' E 000°11'0 0.0
2017-Mar-18 04:32N 49°29' E 000°11'0 0.0
2017-Mar-18 03:32N 49°29' E 000°11'0 0.0
2017-Mar-18 02:32N 49°29' E 000°11'0 0.0
2017-Mar-18 01:32N 49°29' E 000°11'0 0.0
2017-Mar-18 00:29N 49°29' E 000°11'1 0.7
2017-Mar-17 23:33N 49°29' E 000°10'3 3.5
2017-Mar-17 22:34N 49°29' E 000°05'9 8.6
2017-Mar-17 21:33N 49°34' W 000°05'6 6.4
2017-Mar-17 20:33N 49°41' W 000°05'9 9.4
2017-Mar-17 19:33N 49°49' E 000°03'1212.2
2017-Mar-17 18:33N 49°58' E 000°15'4012.4
2017-Mar-17 15:20N 50°35' E 000°38'1013.0
2017-Mar-17 14:33N 50°41' E 000°51'1312.4
2017-Mar-17 13:30N 50°49' E 001°07'1212.7
2017-Mar-17 12:33N 50°57' E 001°21'1515.2
2017-Mar-17 11:33N 51°08' E 001°38'1616.4
2017-Mar-17 10:33N 51°22' E 001°52'1515.4
2017-Mar-17 09:33N 51°34' E 002°08'1514.5
2017-Mar-17 08:33N 51°45' E 002°24'12112.2
2017-Mar-16 22:33N 53°30' E 000°44'1414.4
2017-Mar-16 21:33N 53°32' E 000°20'1212.2
2017-Mar-16 20:33N 53°35' E 000°00'7 6.3
2017-Mar-16 19:31N 53°38' W 000°10'0 0.0
2017-Mar-16 18:31N 53°38' W 000°10'0 0.0
2017-Mar-16 17:28N 53°38' W 000°10'0 0.0
2017-Mar-16 16:25N 53°38' W 000°10'0 0.0
2017-Mar-16 15:28N 53°38' W 000°10'0 0.0
2017-Mar-16 14:31N 53°38' W 000°10'0 0.0
2017-Mar-16 13:31N 53°38' W 000°10'0 0.0
2017-Mar-16 12:28N 53°38' W 000°10'0 0.0
2017-Mar-16 11:28N 53°38' W 000°10'0 0.0
2017-Mar-16 10:31N 53°38' W 000°10'0 0.0
2017-Mar-16 09:31N 53°38' W 000°10'0 0.0
2017-Mar-16 08:31N 53°38' W 000°10'0 0.0
2017-Mar-16 07:31N 53°38' W 000°10'0 0.0
2017-Mar-16 06:31N 53°38' W 000°10'0 0.0
2017-Mar-16 05:28N 53°38' W 000°10'0 0.0
2017-Mar-16 04:31N 53°38' W 000°10'0 0.0
2017-Mar-16 03:28N 53°38' W 000°10'0 0.0
2017-Mar-16 02:31N 53°38' W 000°10'0 0.0
2017-Mar-16 01:28N 53°38' W 000°10'0 0.0
2017-Mar-16 00:31N 53°38' W 000°10'0 0.0
2017-Mar-15 23:31N 53°38' W 000°10'0 0.0
2017-Mar-15 22:31N 53°38' W 000°10'0 0.0
2017-Mar-15 21:25N 53°38' W 000°10'0 0.0
2017-Mar-15 20:30N 53°38' W 000°10'5 5.3
2017-Mar-15 19:33N 53°36' W 000°02'1010.1
2017-Mar-15 18:33N 53°33' E 000°15'7 1.4
2017-Mar-15 13:31N 53°36' E 000°26'0 0.0
2017-Mar-15 12:31N 53°36' E 000°26'  
Track history (hours):
 
Tides and Currents Weather Stations Pressure Air Temp Water Temp Dewpoint Dewpoint Depression Visibility Wind Speed Wind Dir Waves Ship Positions

Chantaco

Last reported at 2017-Mar-24 03:32 UTC. Time now 2017-Mar-24 04:18 UTC.
Position N 47°18' W 002°06'.

Length 143 m; draft 8.8 m.

Type: Tanker. MMSI: 228330700.

Date/timePositionNaut miles runAvg speedWind from/ knotsBaromVisibWave heightAir tempDewpointWater temp
2017-Mar-24 03:32N 47°18' W 002°06'0 0.0
2017-Mar-24 02:23N 47°18' W 002°06'0 0.0
2017-Mar-24 01:20N 47°18' W 002°06'0 0.0
2017-Mar-24 00:29N 47°18' W 002°06'0 0.0
2017-Mar-23 23:32N 47°18' W 002°06'0 0.0
2017-Mar-23 22:29N 47°18' W 002°06'0 0.0
2017-Mar-23 21:29N 47°18' W 002°06'0 0.0
2017-Mar-23 20:32N 47°18' W 002°06'0 0.0
2017-Mar-23 19:29N 47°18' W 002°06'0 0.0
2017-Mar-23 18:32N 47°18' W 002°06'0 0.0
2017-Mar-23 17:32N 47°18' W 002°06'0 0.0
2017-Mar-23 16:32N 47°18' W 002°06'0 0.0
2017-Mar-23 15:31N 47°18' W 002°06'0 0.0
2017-Mar-23 14:28N 47°18' W 002°06'0 0.0
2017-Mar-23 13:31N 47°18' W 002°06'0 0.0
2017-Mar-23 12:25N 47°18' W 002°06'0 0.0
2017-Mar-23 11:28N 47°18' W 002°06'0 0.0
2017-Mar-23 10:31N 47°18' W 002°06'0 0.0
2017-Mar-23 09:22N 47°18' W 002°06'0 0.0
2017-Mar-23 08:19N 47°18' W 002°06'0 0.0
2017-Mar-23 07:28N 47°18' W 002°06'0 0.0
2017-Mar-23 06:31N 47°18' W 002°06'0 0.0
2017-Mar-23 05:28N 47°18' W 002°06'0 0.0
2017-Mar-23 04:22N 47°18' W 002°06'0 0.0
2017-Mar-23 03:31N 47°18' W 002°06'0 0.0
2017-Mar-23 02:28N 47°18' W 002°06'0 0.0
2017-Mar-23 01:33N 47°18' W 002°06'3 3.3
2017-Mar-23 00:33N 47°17' W 002°10'1211.9
2017-Mar-22 23:33N 47°08' W 002°22'4 3.4
2017-Mar-22 22:30N 47°07' W 002°27'0 0.0
2017-Mar-22 21:24N 47°07' W 002°27'0 0.0
2017-Mar-22 20:30N 47°07' W 002°27'0 0.0
2017-Mar-22 17:24N 47°07' W 002°27'0 0.1
2017-Mar-22 16:33N 47°07' W 002°27'0 0.1
2017-Mar-22 15:30N 47°07' W 002°27'0 0.1
2017-Mar-22 14:32N 47°07' W 002°27'0 0.1
2017-Mar-22 13:32N 47°07' W 002°27'0 0.1
2017-Mar-22 12:33N 47°07' W 002°27'5 5.2
2017-Mar-22 11:33N 47°03' W 002°30'21012.4
2017-Mar-21 18:33N 43°35' W 001°40'8 7.8
2017-Mar-21 17:33N 43°32' W 001°30'1 0.0
2017-Mar-20 17:33N 43°32' W 001°31'9 9.2
2017-Mar-20 16:33N 43°37' W 001°41'20514.6
2017-Mar-20 02:33N 46°34' W 004°07'1414.2
2017-Mar-20 01:33N 46°46' W 004°18'1414.2
2017-Mar-20 00:33N 46°59' W 004°28'1414.3
2017-Mar-19 23:32N 47°11' W 004°39'1514.6
2017-Mar-19 22:33N 47°24' W 004°49'3114.6
2017-Mar-19 20:26N 47°50' W 005°13'1614.2
2017-Mar-19 19:20N 48°04' W 005°24'1513.8
2017-Mar-19 18:14N 48°17' W 005°35'7510.6
2017-Mar-19 11:08N 49°20' W 004°34'5812.7
2017-Mar-19 06:32N 49°50' W 003°16'1414.8
2017-Mar-19 05:33N 49°57' W 002°57'1615.4
2017-Mar-19 04:31N 50°01' W 002°33'1414.8
2017-Mar-19 03:33N 50°00' W 002°10'1414.0
2017-Mar-19 02:33N 49°56' W 001°50'1313.1
2017-Mar-19 01:33N 49°53' W 001°30'1212.2
2017-Mar-19 00:34N 49°51' W 001°11'1211.9
2017-Mar-18 23:34N 49°46' W 000°54'1212.2
2017-Mar-18 22:34N 49°40' W 000°38'1312.7
2017-Mar-18 21:33N 49°35' W 000°20'1212.3
2017-Mar-18 20:34N 49°31' W 000°02'8 8.3
2017-Mar-18 19:34N 49°29' E 000°10'1 0.5
2017-Mar-18 18:34N 49°29' E 000°11'0 0.0
2017-Mar-18 17:33N 49°29' E 000°11'0 0.0
2017-Mar-18 16:33N 49°29' E 000°11'0 0.0
2017-Mar-18 15:33N 49°29' E 000°11'0 0.0
2017-Mar-18 14:33N 49°29' E 000°11'0 0.0
2017-Mar-18 13:33N 49°29' E 000°11'0 0.0
2017-Mar-18 12:33N 49°29' E 000°11'0 0.0
2017-Mar-18 11:33N 49°29' E 000°11'0 0.0
2017-Mar-18 10:33N 49°29' E 000°11'0 0.0
2017-Mar-18 09:33N 49°29' E 000°11'0 0.0
2017-Mar-18 08:33N 49°29' E 000°11'0 0.0
2017-Mar-18 07:33N 49°29' E 000°11'0 0.0
2017-Mar-18 06:33N 49°29' E 000°11'0 0.0
2017-Mar-18 05:32N 49°29' E 000°11'0 0.0
2017-Mar-18 04:32N 49°29' E 000°11'0 0.0
2017-Mar-18 03:32N 49°29' E 000°11'0 0.0
2017-Mar-18 02:32N 49°29' E 000°11'0 0.0
2017-Mar-18 01:32N 49°29' E 000°11'0 0.0
2017-Mar-18 00:29N 49°29' E 000°11'1 0.7
2017-Mar-17 23:33N 49°29' E 000°10'3 3.5
2017-Mar-17 22:34N 49°29' E 000°05'9 8.6
2017-Mar-17 21:33N 49°34' W 000°05'6 6.4
2017-Mar-17 20:33N 49°41' W 000°05'9 9.4
2017-Mar-17 19:33N 49°49' E 000°03'1212.2
2017-Mar-17 18:33N 49°58' E 000°15'4012.4
2017-Mar-17 15:20N 50°35' E 000°38'1013.0
2017-Mar-17 14:33N 50°41' E 000°51'1312.4
2017-Mar-17 13:30N 50°49' E 001°07'1212.7
2017-Mar-17 12:33N 50°57' E 001°21'1515.2
2017-Mar-17 11:33N 51°08' E 001°38'1616.4
2017-Mar-17 10:33N 51°22' E 001°52'1515.4
2017-Mar-17 09:33N 51°34' E 002°08'1514.5
2017-Mar-17 08:33N 51°45' E 002°24'12112.2
2017-Mar-16 22:33N 53°30' E 000°44'1414.4
2017-Mar-16 21:33N 53°32' E 000°20'1212.2
2017-Mar-16 20:33N 53°35' E 000°00'7 6.3
2017-Mar-16 19:31N 53°38' W 000°10'0 0.0
2017-Mar-16 18:31N 53°38' W 000°10'0 0.0
2017-Mar-16 17:28N 53°38' W 000°10'0 0.0
2017-Mar-16 16:25N 53°38' W 000°10'0 0.0
2017-Mar-16 15:28N 53°38' W 000°10'0 0.0
2017-Mar-16 14:31N 53°38' W 000°10'0 0.0
2017-Mar-16 13:31N 53°38' W 000°10'0 0.0
2017-Mar-16 12:28N 53°38' W 000°10'0 0.0
2017-Mar-16 11:28N 53°38' W 000°10'0 0.0
2017-Mar-16 10:31N 53°38' W 000°10'0 0.0
2017-Mar-16 09:31N 53°38' W 000°10'0 0.0
2017-Mar-16 08:31N 53°38' W 000°10'0 0.0
2017-Mar-16 07:31N 53°38' W 000°10'0 0.0
2017-Mar-16 06:31N 53°38' W 000°10'0 0.0
2017-Mar-16 05:28N 53°38' W 000°10'0 0.0
2017-Mar-16 04:31N 53°38' W 000°10'0 0.0
2017-Mar-16 03:28N 53°38' W 000°10'0 0.0
2017-Mar-16 02:31N 53°38' W 000°10'0 0.0
2017-Mar-16 01:28N 53°38' W 000°10'0 0.0
2017-Mar-16 00:31N 53°38' W 000°10'0 0.0
2017-Mar-15 23:31N 53°38' W 000°10'0 0.0
2017-Mar-15 22:31N 53°38' W 000°10'0 0.0
2017-Mar-15 21:25N 53°38' W 000°10'0 0.0
2017-Mar-15 20:30N 53°38' W 000°10'5 5.3
2017-Mar-15 19:33N 53°36' W 000°02'1010.1
2017-Mar-15 18:33N 53°33' E 000°15'7 1.4
2017-Mar-15 13:31N 53°36' E 000°26'0 0.0
2017-Mar-15 12:31N 53°36' E 000°26'  

Dump ship's entire track history